ハルビン の空港の天気 - METARとTAF

ハルビン太平国際空港 ( ZYHB / HRB ) - 中華人民共和国 黒竜江省ハルビン市
飛行場実況気象(Metar)
観測時間03/29 05:00 CST (03/28 21:00 UTC)
風向・風速南東 2m/s
視程10km以上
天気現象
なし
気温2℃
湿度60%
気圧1010hPa
METARZYHB 282100Z 14002MPS CAVOK 02/M05 Q1010 NOSIG
過去の天気等 Google飛行場航空写真 Wunderground天気予報

過去48時間のMETAR

飛行場予報(TAF)
発表時間: 3/28 21:02 CST (3/28 13:02 UTC)
予報対象時間: 29日2時 CST ~ 30日2時 CST
風向・風速西南西 3m/s
視程3,000m
天気現象
全天の4割程度の雲 雲底高度 910m
TAF ZYHB 281302Z 2818/2918 24003MPS 3000 FU SCT030 TX11/2906Z TNM04/22Z